createdAt,value
2023-01-12T00:01:13.541Z,2.20
2023-01-12T00:03:30.586Z,2.95
2023-01-12T00:05:47.590Z,3.10
2023-01-12T00:08:06.350Z,3.10
2023-01-12T00:10:23.451Z,2.63
2023-01-12T00:12:40.489Z,2.60
2023-01-12T00:14:57.520Z,2.80
2023-01-12T00:17:16.163Z,2.42
2023-01-12T00:19:33.119Z,3.33
2023-01-12T00:21:51.373Z,3.15
2023-01-12T00:24:08.329Z,3.13
2023-01-12T00:26:25.380Z,2.30
2023-01-12T00:28:42.338Z,2.92
2023-01-12T00:30:59.579Z,2.70
2023-01-12T00:33:17.182Z,2.45
2023-01-12T00:35:34.393Z,2.90
2023-01-12T00:37:51.368Z,2.47
2023-01-12T00:40:08.381Z,2.60
2023-01-12T00:42:25.669Z,2.47
2023-01-12T00:44:43.379Z,2.83
2023-01-12T00:47:00.447Z,2.70
2023-01-12T00:49:17.648Z,2.67
2023-01-12T00:51:36.793Z,2.60
2023-01-12T00:53:55.443Z,2.33
2023-01-12T00:56:12.397Z,2.88
2023-01-12T00:58:29.468Z,2.58
2023-01-12T01:00:46.418Z,2.22
2023-01-12T01:03:03.382Z,2.28
2023-01-12T01:05:20.394Z,2.30
2023-01-12T01:07:37.736Z,1.98
2023-01-12T01:09:54.707Z,1.92
2023-01-12T01:12:11.753Z,1.88
2023-01-12T01:14:31.808Z,2.03
2023-01-12T01:16:50.097Z,2.03
2023-01-12T01:19:07.141Z,2.17
2023-01-12T01:21:24.435Z,1.80
2023-01-12T01:23:41.603Z,1.70
2023-01-12T01:25:58.614Z,1.98
2023-01-12T01:28:15.691Z,2.05
2023-01-12T01:30:32.767Z,1.70
2023-01-12T01:32:49.681Z,2.00
2023-01-12T01:35:07.037Z,2.00
2023-01-12T01:37:24.016Z,2.10
2023-01-12T01:39:41.970Z,2.50
2023-01-12T01:41:59.229Z,1.85
2023-01-12T01:44:16.291Z,2.13
2023-01-12T01:46:33.603Z,1.90
2023-01-12T01:48:50.970Z,2.08
2023-01-12T01:51:08.018Z,2.10
2023-01-12T01:53:24.926Z,2.60
2023-01-12T01:55:41.908Z,2.92
2023-01-12T01:57:58.884Z,1.90
2023-01-12T02:00:16.159Z,2.45
2023-01-12T02:02:33.263Z,2.17
2023-01-12T02:04:50.252Z,2.17
2023-01-12T02:07:07.137Z,2.67
2023-01-12T02:09:24.408Z,2.40
2023-01-12T02:11:43.022Z,2.47
2023-01-12T02:14:00.024Z,2.85
2023-01-12T02:16:17.084Z,2.60
2023-01-12T02:18:34.413Z,2.10
2023-01-12T02:20:51.546Z,2.33
2023-01-12T02:23:09.785Z,1.92
2023-01-12T02:25:26.870Z,2.45
2023-01-12T02:27:44.228Z,1.80
2023-01-12T02:30:01.543Z,2.35
2023-01-12T02:32:18.581Z,1.88
2023-01-12T02:34:35.896Z,2.15
2023-01-12T02:36:52.910Z,1.98
2023-01-12T02:39:10.164Z,2.25
2023-01-12T02:41:27.217Z,2.35
2023-01-12T02:43:44.362Z,2.20
2023-01-12T02:46:01.427Z,1.63
2023-01-12T02:48:19.674Z,2.00
2023-01-12T02:50:36.709Z,1.65
2023-01-12T02:52:53.785Z,1.85
2023-01-12T02:55:11.181Z,1.58
2023-01-12T02:57:28.198Z,1.65
2023-01-12T02:59:45.212Z,1.50
2023-01-12T03:02:02.255Z,1.40
2023-01-12T03:04:19.559Z,1.73
2023-01-12T03:06:36.542Z,1.42
2023-01-12T03:08:53.591Z,1.70
2023-01-12T03:11:10.905Z,1.52
2023-01-12T03:13:28.119Z,1.83
2023-01-12T03:15:48.254Z,1.35
2023-01-12T03:18:05.496Z,1.40
2023-01-12T03:20:22.526Z,1.83
2023-01-12T03:22:39.536Z,1.73
2023-01-12T03:24:56.830Z,1.60
2023-01-12T03:27:14.999Z,1.73
2023-01-12T03:29:31.937Z,1.58
2023-01-12T03:31:48.907Z,1.67
2023-01-12T03:34:05.918Z,1.88
2023-01-12T03:36:22.842Z,1.50
2023-01-12T03:38:40.117Z,1.77
2023-01-12T03:40:57.344Z,1.35
2023-01-12T03:43:14.343Z,1.27
2023-01-12T03:45:31.311Z,1.60
2023-01-12T03:47:48.314Z,1.35
2023-01-12T03:50:05.379Z,1.67
2023-01-12T03:52:22.679Z,1.50
2023-01-12T03:54:41.763Z,1.40
2023-01-12T03:56:58.996Z,1.38
2023-01-12T03:59:17.249Z,1.30
2023-01-12T04:01:34.567Z,1.48
2023-01-12T04:03:51.948Z,1.13
2023-01-12T04:06:09.326Z,1.40
2023-01-12T04:08:26.387Z,1.25
2023-01-12T04:10:45.589Z,1.20
2023-01-12T04:13:02.633Z,1.40
2023-01-12T04:15:19.971Z,1.33
2023-01-12T04:17:40.132Z,2.17
2023-01-12T04:19:57.431Z,1.98
2023-01-12T04:22:15.452Z,1.45
2023-01-12T04:24:33.276Z,1.65
2023-01-12T04:26:52.243Z,1.65
2023-01-12T04:29:09.192Z,1.85
2023-01-12T04:31:26.237Z,1.65
2023-01-12T04:33:43.516Z,1.40
2023-01-12T04:36:00.497Z,1.60
2023-01-12T04:38:18.507Z,1.58
2023-01-12T04:40:35.469Z,1.40
2023-01-12T04:42:52.486Z,2.13
2023-01-12T04:45:09.529Z,1.40
2023-01-12T04:47:26.540Z,1.90
2023-01-12T04:49:43.682Z,1.85
2023-01-12T04:52:01.608Z,1.77
2023-01-12T04:54:18.429Z,1.92
2023-01-12T04:56:35.430Z,2.28
2023-01-12T04:58:52.741Z,2.20
2023-01-12T05:01:10.172Z,1.80
2023-01-12T05:03:27.198Z,1.73
2023-01-12T05:05:44.213Z,1.63
2023-01-12T05:08:01.104Z,2.13
2023-01-12T05:10:18.101Z,2.13
2023-01-12T05:12:35.146Z,2.30
2023-01-12T05:14:53.145Z,1.80
2023-01-12T05:17:10.073Z,1.92
2023-01-12T05:19:27.373Z,2.10
2023-01-12T05:21:45.552Z,1.70
2023-01-12T05:24:03.898Z,1.80
2023-01-12T05:26:20.840Z,1.80
2023-01-12T05:28:40.311Z,1.73
2023-01-12T05:30:57.359Z,2.80
2023-01-12T05:33:14.259Z,5.25
2023-01-12T05:35:31.311Z,3.72
2023-01-12T05:37:49.310Z,3.60
2023-01-12T05:40:06.384Z,4.22
2023-01-12T05:42:24.451Z,4.00
2023-01-12T05:44:43.081Z,2.63
2023-01-12T05:47:00.045Z,3.85
2023-01-12T05:49:17.086Z,2.72
2023-01-12T05:51:34.067Z,3.13
2023-01-12T05:53:51.002Z,5.00
2023-01-12T05:56:08.320Z,4.00
2023-01-12T05:58:25.299Z,3.20
2023-01-12T06:00:42.289Z,2.90
2023-01-12T06:03:00.822Z,2.78
2023-01-12T06:05:17.926Z,2.17
2023-01-12T06:07:35.392Z,2.72
2023-01-12T06:09:53.667Z,2.70
2023-01-12T06:12:11.264Z,2.53
2023-01-12T06:14:28.187Z,3.50
2023-01-12T06:16:45.128Z,4.88
2023-01-12T06:19:02.216Z,3.45
2023-01-12T06:21:19.197Z,5.80
2023-01-12T06:23:37.806Z,4.55
2023-01-12T06:25:55.567Z,3.65
2023-01-12T06:28:14.309Z,3.13
2023-01-12T06:30:31.364Z,2.88
2023-01-12T06:32:48.400Z,3.70
2023-01-12T06:35:17.875Z,3.97
2023-01-12T06:37:35.875Z,2.55
2023-01-12T06:39:53.210Z,2.63
2023-01-12T06:42:10.520Z,3.97
2023-01-12T06:44:27.759Z,3.53
2023-01-12T06:46:44.998Z,3.30
2023-01-12T06:49:01.924Z,3.67
2023-01-12T06:51:18.984Z,6.32
2023-01-12T06:53:35.979Z,8.50
2023-01-12T06:55:52.861Z,8.88
2023-01-12T06:58:10.032Z,9.15
2023-01-12T07:00:27.378Z,6.28
2023-01-12T07:02:44.400Z,4.45
2023-01-12T07:05:01.464Z,4.35
2023-01-12T07:07:18.716Z,3.30
2023-01-12T07:09:36.861Z,3.78
2023-01-12T07:11:53.876Z,3.85
2023-01-12T07:14:10.908Z,5.50
2023-01-12T07:16:29.167Z,3.10
2023-01-12T07:18:46.165Z,1.70
2023-01-12T07:21:03.183Z,4.28
2023-01-12T07:23:20.146Z,3.40
2023-01-12T07:25:38.129Z,6.07
2023-01-12T07:27:55.355Z,5.80
2023-01-12T07:30:12.568Z,5.03
2023-01-12T07:32:29.794Z,6.20
2023-01-12T07:34:50.282Z,5.00
2023-01-12T07:37:07.598Z,6.50
2023-01-12T07:39:24.922Z,4.80
2023-01-12T07:41:41.995Z,6.70
2023-01-12T07:43:58.998Z,2.40
2023-01-12T07:46:16.437Z,1.92
2023-01-12T07:48:34.488Z,1.65
2023-01-12T07:50:51.544Z,1.42
2023-01-12T07:53:08.837Z,1.50
2023-01-12T07:55:26.173Z,1.20
2023-01-12T07:57:43.224Z,2.17
2023-01-12T08:00:00.313Z,2.50
2023-01-12T08:02:18.417Z,2.20
2023-01-12T08:04:36.756Z,1.90
2023-01-12T08:06:53.982Z,2.75
2023-01-12T08:09:11.301Z,1.73
2023-01-12T08:11:28.593Z,2.15
2023-01-12T08:13:45.689Z,1.58
2023-01-12T08:16:04.172Z,1.60
2023-01-12T08:18:21.298Z,1.30
2023-01-12T08:20:38.603Z,1.15
2023-01-12T08:22:55.787Z,1.50
2023-01-12T08:25:13.124Z,1.30
2023-01-12T08:27:30.215Z,1.25
2023-01-12T08:29:47.501Z,1.17
2023-01-12T08:32:05.014Z,1.20
2023-01-12T08:34:22.217Z,1.08
2023-01-12T08:36:39.719Z,1.35
2023-01-12T08:38:57.233Z,1.42
2023-01-12T08:41:15.588Z,1.20
2023-01-12T08:43:32.899Z,1.42
2023-01-12T08:45:49.928Z,1.60
2023-01-12T08:48:07.181Z,1.80
2023-01-12T08:50:24.334Z,1.25
2023-01-12T08:52:41.241Z,1.42
2023-01-12T08:54:58.477Z,2.17
2023-01-12T08:57:16.513Z,1.67
2023-01-12T08:59:33.887Z,1.73
2023-01-12T09:01:51.057Z,3.63
2023-01-12T09:04:08.205Z,2.03
2023-01-12T09:06:25.594Z,4.20
2023-01-12T09:08:42.989Z,2.85
2023-01-12T09:11:00.070Z,1.30
2023-01-12T09:13:17.112Z,7.53
2023-01-12T09:15:34.431Z,2.92
2023-01-12T09:17:52.758Z,1.60
2023-01-12T09:20:09.681Z,1.38
2023-01-12T09:22:26.993Z,1.05
2023-01-12T09:24:44.037Z,2.38
2023-01-12T09:27:01.108Z,1.40
2023-01-12T09:29:18.123Z,1.25
2023-01-12T09:31:35.195Z,1.00
2023-01-12T09:33:52.553Z,1.00
2023-01-12T09:36:09.620Z,0.60
2023-01-12T09:38:26.537Z,0.80
2023-01-12T09:40:43.485Z,1.13
2023-01-12T09:43:00.732Z,1.20
2023-01-12T09:45:17.689Z,1.30
2023-01-12T09:47:35.016Z,1.20
2023-01-12T09:49:55.943Z,1.05
2023-01-12T09:52:15.939Z,0.75
2023-01-12T09:54:33.233Z,1.13
2023-01-12T09:56:50.277Z,1.10
2023-01-12T09:59:07.261Z,0.80
2023-01-12T10:01:29.538Z,0.60
2023-01-12T10:03:47.483Z,0.80
2023-01-12T10:06:04.522Z,0.68
2023-01-12T10:08:21.441Z,0.88
2023-01-12T10:10:38.482Z,1.05
2023-01-12T10:12:55.478Z,0.80
2023-01-12T10:15:13.729Z,0.80
2023-01-12T10:17:38.654Z,0.98
2023-01-12T10:19:59.452Z,1.10
2023-01-12T10:22:16.532Z,1.00
2023-01-12T10:24:34.540Z,0.73
2023-01-12T10:26:51.864Z,1.05
2023-01-12T10:29:08.768Z,1.10
2023-01-12T10:31:26.058Z,0.77
2023-01-12T10:33:43.022Z,0.60
2023-01-12T10:36:00.044Z,0.70
2023-01-12T10:38:17.333Z,0.95
2023-01-12T10:40:34.347Z,0.60
2023-01-12T10:42:51.417Z,0.85
2023-01-12T10:45:08.391Z,0.82
2023-01-12T10:47:25.401Z,0.95
2023-01-12T10:49:42.517Z,0.93
2023-01-12T10:51:59.800Z,0.57
2023-01-12T10:54:16.938Z,0.80
2023-01-12T10:56:33.925Z,0.70
2023-01-12T10:58:51.049Z,0.70
2023-01-12T11:01:08.339Z,1.25
2023-01-12T11:03:25.417Z,0.82
2023-01-12T11:05:42.721Z,0.68
2023-01-12T11:07:59.681Z,0.90
2023-01-12T11:10:19.286Z,0.60
2023-01-12T11:12:37.222Z,1.00
2023-01-12T11:14:55.466Z,0.68
2023-01-12T11:17:12.547Z,0.80
2023-01-12T11:19:30.682Z,0.70
2023-01-12T11:21:47.750Z,0.70
2023-01-12T11:24:04.771Z,0.63
2023-01-12T11:26:23.017Z,0.70
2023-01-12T11:28:40.643Z,0.70
2023-01-12T11:30:57.743Z,0.70
2023-01-12T11:33:15.291Z,0.75
2023-01-12T11:35:35.431Z,0.73
2023-01-12T11:37:53.529Z,0.52
2023-01-12T11:40:11.722Z,0.60
2023-01-12T11:42:28.762Z,0.70
2023-01-12T11:44:46.088Z,0.73
2023-01-12T11:47:03.347Z,0.50
2023-01-12T11:49:20.420Z,0.75
2023-01-12T11:51:37.738Z,1.95
2023-01-12T11:53:54.870Z,2.53
2023-01-12T11:56:13.248Z,2.40
2023-01-12T11:58:30.562Z,2.92
2023-01-12T12:00:47.604Z,7.05
2023-01-12T12:03:05.083Z,5.70
2023-01-12T12:05:22.700Z,5.32
2023-01-12T12:07:39.842Z,3.88
2023-01-12T12:09:56.818Z,4.28
2023-01-12T12:12:13.906Z,2.42
2023-01-12T12:14:31.249Z,1.55
2023-01-12T12:16:49.279Z,1.48
2023-01-12T12:19:09.748Z,4.15
2023-01-12T12:21:26.900Z,1.90
2023-01-12T12:23:45.204Z,0.70
2023-01-12T12:26:02.547Z,0.88
2023-01-12T12:28:20.875Z,0.77
2023-01-12T12:30:37.983Z,1.20
2023-01-12T12:32:56.035Z,1.40
2023-01-12T12:35:13.415Z,1.13
2023-01-12T12:37:30.339Z,0.60
2023-01-12T12:39:47.661Z,1.63
2023-01-12T12:42:04.660Z,1.50
2023-01-12T12:44:21.688Z,1.40
2023-01-12T12:46:38.810Z,2.00
2023-01-12T12:48:55.770Z,1.35
2023-01-12T12:51:12.874Z,1.35
2023-01-12T12:53:29.817Z,0.70
2023-01-12T12:55:49.646Z,2.95
2023-01-12T12:58:07.784Z,1.90
2023-01-12T13:00:25.534Z,2.20
2023-01-12T13:02:42.616Z,0.93
2023-01-12T13:04:59.689Z,0.60
2023-01-12T13:07:16.903Z,2.78
2023-01-12T13:09:34.031Z,1.23
2023-01-12T13:11:51.173Z,2.30
2023-01-12T13:14:08.878Z,10.73
2023-01-12T13:16:28.822Z,3.20
2023-01-12T13:18:46.899Z,2.28
2023-01-12T13:21:05.915Z,2.38
2023-01-12T13:23:23.085Z,0.82
2023-01-12T13:25:41.768Z,1.02
2023-01-12T13:27:58.976Z,1.67
2023-01-12T13:30:17.767Z,0.75
2023-01-12T13:32:36.002Z,0.47
2023-01-12T13:34:54.142Z,0.90
2023-01-12T13:37:11.211Z,0.50
2023-01-12T13:39:29.301Z,0.55
2023-01-12T13:41:49.157Z,0.60
2023-01-12T13:44:07.263Z,0.50
2023-01-12T13:46:24.676Z,0.50
2023-01-12T13:48:43.078Z,1.50
2023-01-12T13:51:01.342Z,0.80
2023-01-12T13:53:19.658Z,0.60
2023-01-12T13:55:36.613Z,0.40
2023-01-12T13:57:53.687Z,0.30
2023-01-12T14:00:11.185Z,0.40
2023-01-12T14:02:28.647Z,0.30
2023-01-12T14:04:45.604Z,0.38
2023-01-12T14:07:02.897Z,0.40
2023-01-12T14:09:19.988Z,0.50
2023-01-12T14:11:36.942Z,0.40
2023-01-12T14:13:54.474Z,0.30
2023-01-12T14:16:12.920Z,0.60
2023-01-12T14:18:30.003Z,0.40
2023-01-12T14:20:47.047Z,0.40
2023-01-12T14:23:05.052Z,0.40
2023-01-12T14:25:22.076Z,0.30
2023-01-12T14:27:39.441Z,0.47
2023-01-12T14:29:56.617Z,0.40
2023-01-12T14:32:14.151Z,0.40
2023-01-12T14:34:31.423Z,0.40
2023-01-12T14:36:48.611Z,0.50
2023-01-12T14:39:06.194Z,0.40
2023-01-12T14:41:23.572Z,0.43
2023-01-12T14:43:41.044Z,0.40
2023-01-12T14:45:58.231Z,0.50
2023-01-12T14:48:15.272Z,0.40
2023-01-12T14:50:34.441Z,1.10
2023-01-12T14:52:53.523Z,1.00
2023-01-12T14:55:10.757Z,0.93
2023-01-12T14:57:29.009Z,0.68
2023-01-12T14:59:46.335Z,0.50
2023-01-12T15:02:04.580Z,1.15
2023-01-12T15:04:21.941Z,0.30
2023-01-12T15:06:40.131Z,0.40
2023-01-12T15:08:58.123Z,0.40
2023-01-12T15:11:15.393Z,0.50
2023-01-12T15:13:32.478Z,0.40
2023-01-12T15:15:49.703Z,0.30
2023-01-12T15:18:06.987Z,0.30
2023-01-12T15:20:24.383Z,0.47
2023-01-12T15:22:41.421Z,0.32
2023-01-12T15:24:58.569Z,0.30
2023-01-12T15:27:15.877Z,0.47
2023-01-12T15:29:32.913Z,0.40
2023-01-12T15:31:49.926Z,0.45
2023-01-12T15:34:07.267Z,0.40
2023-01-12T15:36:24.922Z,0.47
2023-01-12T15:38:41.955Z,0.30
2023-01-12T15:40:59.300Z,0.60
2023-01-12T15:43:16.482Z,0.38
2023-01-12T15:45:33.651Z,0.30
2023-01-12T15:47:50.728Z,0.63
2023-01-12T15:50:07.879Z,0.50
2023-01-12T15:52:24.937Z,0.60
2023-01-12T15:54:42.061Z,0.50
2023-01-12T15:57:01.205Z,0.50
2023-01-12T15:59:18.299Z,0.50
2023-01-12T16:01:38.772Z,0.50
2023-01-12T16:04:25.050Z,0.50
2023-01-12T16:06:33.078Z,0.52
2023-01-12T16:08:50.464Z,0.65
2023-01-12T16:11:08.515Z,0.50
2023-01-12T16:13:25.778Z,0.50
2023-01-12T16:15:44.140Z,1.00
2023-01-12T16:18:01.415Z,0.60
2023-01-12T16:20:18.532Z,0.60
2023-01-12T16:22:35.895Z,0.82
2023-01-12T16:24:53.189Z,1.58
2023-01-12T16:27:10.654Z,0.90
2023-01-12T16:29:32.488Z,0.88
2023-01-12T16:31:51.729Z,0.80
2023-01-12T16:34:12.194Z,0.70
2023-01-12T16:36:29.073Z,0.65
2023-01-12T16:38:46.367Z,0.52
2023-01-12T16:41:05.562Z,0.50
2023-01-12T16:43:22.536Z,0.63
2023-01-12T16:45:39.531Z,0.60
2023-01-12T16:47:56.620Z,0.98
2023-01-12T16:50:14.697Z,1.00
2023-01-12T16:52:32.198Z,0.80
2023-01-12T16:54:49.273Z,0.60
2023-01-12T16:57:06.168Z,0.93
2023-01-12T16:59:23.145Z,1.10
2023-01-12T17:01:40.683Z,1.17
2023-01-12T17:03:58.142Z,0.70
2023-01-12T17:06:15.285Z,0.70
2023-01-12T17:08:32.719Z,1.20
2023-01-12T17:10:52.914Z,0.82
2023-01-12T17:13:10.116Z,0.80
2023-01-12T17:15:27.457Z,0.77
2023-01-12T17:17:45.817Z,1.00
2023-01-12T17:20:02.969Z,0.70
2023-01-12T17:22:20.362Z,0.70
2023-01-12T17:24:37.744Z,0.77
2023-01-12T17:26:55.015Z,0.60
2023-01-12T17:29:12.646Z,0.70
2023-01-12T17:31:32.816Z,0.57
2023-01-12T17:33:52.653Z,0.60
2023-01-12T17:36:09.937Z,0.70
2023-01-12T17:38:27.451Z,0.50
2023-01-12T17:40:44.806Z,0.47
2023-01-12T17:43:03.233Z,0.43
2023-01-12T17:45:20.732Z,0.50
2023-01-12T17:47:37.798Z,0.43
2023-01-12T17:49:55.006Z,0.47
2023-01-12T17:52:12.212Z,0.70
2023-01-12T17:54:29.410Z,0.70
2023-01-12T17:56:46.471Z,0.60
2023-01-12T17:59:06.812Z,0.70
2023-01-12T18:01:24.091Z,0.73
2023-01-12T18:03:41.400Z,0.68
2023-01-12T18:06:09.090Z,0.80
2023-01-12T18:08:29.838Z,1.00
2023-01-12T18:10:46.888Z,0.70
2023-01-12T18:13:04.049Z,0.60
2023-01-12T18:15:21.075Z,0.55
2023-01-12T18:17:38.114Z,0.60
2023-01-12T18:19:55.408Z,0.93
2023-01-12T18:22:15.224Z,0.90
2023-01-12T18:24:32.203Z,0.90
2023-01-12T18:26:49.202Z,0.70
2023-01-12T18:29:06.299Z,0.80
2023-01-12T18:31:23.501Z,0.80
2023-01-12T18:33:41.563Z,1.85
2023-01-12T18:35:58.866Z,1.10
2023-01-12T18:38:15.821Z,1.35
2023-01-12T18:40:33.855Z,1.00
2023-01-12T18:42:50.924Z,0.90
2023-01-12T18:45:08.221Z,1.00
2023-01-12T18:47:25.354Z,0.77
2023-01-12T18:49:43.278Z,0.75
2023-01-12T18:52:00.784Z,0.65
2023-01-12T18:54:19.265Z,0.55
2023-01-12T18:56:36.303Z,0.70
2023-01-12T18:58:53.298Z,0.70
2023-01-12T19:01:10.433Z,0.70
2023-01-12T19:03:27.444Z,0.80
2023-01-12T19:05:44.818Z,0.70
2023-01-12T19:08:01.949Z,0.80
2023-01-12T19:10:20.382Z,0.80
2023-01-12T19:12:37.383Z,0.90
2023-01-12T19:14:54.347Z,1.10
2023-01-12T19:17:11.881Z,0.80
2023-01-12T19:19:28.974Z,0.82
2023-01-12T19:21:49.739Z,0.70
2023-01-12T19:24:06.665Z,0.80
2023-01-12T19:26:23.842Z,0.70
2023-01-12T19:28:40.848Z,0.80
2023-01-12T19:30:58.022Z,0.80
2023-01-12T19:33:16.023Z,1.00
2023-01-12T19:35:34.356Z,0.90
2023-01-12T19:37:51.751Z,0.90
2023-01-12T19:40:08.927Z,0.82
2023-01-12T19:42:26.223Z,1.15
2023-01-12T19:44:44.561Z,0.88
2023-01-12T19:47:01.636Z,0.80
2023-01-12T19:49:18.610Z,0.90
2023-01-12T19:51:35.960Z,0.80
2023-01-12T19:53:54.282Z,0.90
2023-01-12T19:56:11.291Z,0.80
2023-01-12T19:58:28.644Z,0.60
2023-01-12T20:00:46.094Z,0.85
2023-01-12T20:03:03.433Z,0.90
2023-01-12T20:05:20.395Z,0.60
2023-01-12T20:07:37.426Z,0.85
2023-01-12T20:09:54.923Z,0.60
2023-01-12T20:12:11.889Z,0.68
2023-01-12T20:14:29.229Z,0.80
2023-01-12T20:16:46.248Z,0.70
2023-01-12T20:19:03.421Z,0.88
2023-01-12T20:21:20.682Z,0.70
2023-01-12T20:23:37.928Z,0.50
2023-01-12T20:25:55.005Z,0.70
2023-01-12T20:28:11.973Z,0.60
2023-01-12T20:30:37.813Z,0.60
2023-01-12T20:32:55.482Z,0.70
2023-01-12T20:35:12.700Z,0.65
2023-01-12T20:37:29.663Z,0.60
2023-01-12T20:39:46.773Z,0.80
2023-01-12T20:42:04.018Z,0.93
2023-01-12T20:44:21.378Z,0.90
2023-01-12T20:46:38.760Z,0.88
2023-01-12T20:48:55.787Z,0.90
2023-01-12T20:51:12.775Z,0.77
2023-01-12T20:53:30.040Z,1.27
2023-01-12T20:55:47.396Z,1.15
2023-01-12T20:58:05.874Z,0.80
2023-01-12T21:00:22.978Z,0.80
2023-01-12T21:02:40.374Z,1.13
2023-01-12T21:04:57.373Z,0.70
2023-01-12T21:07:14.461Z,0.70
2023-01-12T21:09:31.443Z,0.55
2023-01-12T21:11:48.541Z,0.60
2023-01-12T21:14:05.566Z,0.60
2023-01-12T21:16:22.784Z,0.70
2023-01-12T21:18:39.965Z,0.60
2023-01-12T21:20:57.253Z,0.50
2023-01-12T21:23:14.414Z,0.57
2023-01-12T21:25:31.761Z,0.60
2023-01-12T21:27:49.027Z,0.60
2023-01-12T21:30:06.290Z,0.73
2023-01-12T21:32:24.614Z,0.60
2023-01-12T21:34:41.594Z,0.60
2023-01-12T21:36:58.598Z,0.75
2023-01-12T21:39:16.068Z,0.50
2023-01-12T21:41:34.162Z,0.70
2023-01-12T21:43:51.512Z,0.50
2023-01-12T21:46:09.649Z,0.50
2023-01-12T21:48:27.107Z,0.50
2023-01-12T21:50:44.134Z,0.40
2023-01-12T21:53:02.440Z,0.50
2023-01-12T21:55:19.612Z,0.32
2023-01-12T21:57:36.508Z,0.50
2023-01-12T21:59:54.930Z,0.47
2023-01-12T22:02:12.337Z,0.50
2023-01-12T22:04:29.431Z,0.50
2023-01-12T22:06:46.452Z,0.50
2023-01-12T22:09:03.466Z,0.40
2023-01-12T22:11:20.748Z,0.30
2023-01-12T22:13:37.830Z,0.32
2023-01-12T22:15:54.782Z,0.40
2023-01-12T22:18:12.126Z,0.55
2023-01-12T22:20:29.585Z,0.50
2023-01-12T22:22:46.916Z,0.40
2023-01-12T22:25:05.198Z,0.50
2023-01-12T22:27:24.536Z,0.50
2023-01-12T22:29:43.116Z,0.40
2023-01-12T22:32:01.216Z,0.38
2023-01-12T22:34:18.364Z,0.88
2023-01-12T22:36:35.523Z,0.30
2023-01-12T22:38:52.899Z,0.38
2023-01-12T22:41:09.866Z,0.60
2023-01-12T22:43:30.014Z,0.43
2023-01-12T22:45:47.493Z,0.40
2023-01-12T22:48:05.453Z,0.40
2023-01-12T22:50:22.785Z,0.40
2023-01-12T22:52:40.192Z,0.60
2023-01-12T22:54:57.282Z,0.52
2023-01-12T22:57:14.398Z,0.50
2023-01-12T22:59:31.536Z,0.57
2023-01-12T23:01:48.597Z,0.30
2023-01-12T23:04:05.608Z,0.50
2023-01-12T23:06:22.563Z,0.50
2023-01-12T23:08:39.785Z,0.40
2023-01-12T23:10:57.063Z,0.40
2023-01-12T23:13:15.193Z,0.40
2023-01-12T23:15:32.362Z,0.43
2023-01-12T23:17:49.797Z,0.50
2023-01-12T23:20:06.821Z,0.30
2023-01-12T23:22:23.881Z,0.52
2023-01-12T23:24:40.871Z,0.40
2023-01-12T23:26:57.785Z,0.70
2023-01-12T23:29:14.833Z,0.40
2023-01-12T23:31:32.000Z,0.35
2023-01-12T23:33:49.943Z,0.35
2023-01-12T23:36:07.037Z,0.32
2023-01-12T23:38:26.392Z,0.30
2023-01-12T23:40:45.159Z,0.40
2023-01-12T23:43:02.131Z,0.40
2023-01-12T23:45:19.174Z,0.60
2023-01-12T23:47:36.450Z,0.40
2023-01-12T23:49:53.797Z,0.40
2023-01-12T23:52:11.879Z,0.38
2023-01-12T23:54:28.916Z,0.47
2023-01-12T23:56:45.851Z,0.40
2023-01-12T23:59:03.633Z,0.40
